Time;durP1;ratioP1;P1;durP2;ratioP2;P2;SDS_P1;SDS_P2;PMS_P1;PMS_P2;Temp;Humidity;BMP_temperature;BMP_pressure;BME280_temperature;BME280_humidity;BME280_pressure;Samples;Min_cycle;Max_cycle;Signal;HPM_P1;HPM_P2
2023/10/01 00:01:55;;;;;;;7.32;3.00;;;12.70;99.90;;;;;;5054381;28;20109;-68
2023/10/01 00:04:24;;;;;;;10.38;3.30;;;12.80;99.90;;;;;;5049644;28;20542;-67
2023/10/01 00:06:58;;;;;;;13.65;3.08;;;12.80;99.90;;;;;;5051079;28;20028;-67
2023/10/01 00:10:19;;;;;;;10.13;3.53;;;12.80;99.90;;;;;;5050349;28;20470;-68
2023/10/01 00:13:09;;;;;;;9.68;2.85;;;12.80;99.90;;;;;;4987193;28;20494;-68
2023/10/01 00:15:37;;;;;;;5.88;2.75;;;12.80;99.90;;;;;;4990444;28;20038;-68
2023/10/01 00:18:21;;;;;;;10.07;3.13;;;12.70;99.90;;;;;;4989477;28;20026;-68
2023/10/01 00:20:48;;;;;;;8.02;3.85;;;12.70;99.90;;;;;;4990018;28;20034;-67
2023/10/01 00:23:14;;;;;;;10.82;3.50;;;12.70;99.90;;;;;;4989134;28;20077;-67
2023/10/01 00:25:49;;;;;;;8.68;2.97;;;12.60;99.90;;;;;;4970442;28;20057;-67
2023/10/01 00:28:17;;;;;;;6.25;2.55;;;12.70;99.90;;;;;;4986411;28;20069;-68
2023/10/01 00:30:58;;;;;;;10.25;3.63;;;12.70;99.90;;;;;;4992616;28;20084;-67
2023/10/01 00:33:27;;;;;;;7.15;2.85;;;12.70;99.90;;;;;;4991150;28;20034;-67
2023/10/01 00:39:14;;;;;;;5.57;3.15;;;12.70;99.90;;;;;;4948939;28;20047;-68
2023/10/01 00:41:46;;;;;;;11.32;3.22;;;12.70;99.90;;;;;;4989919;28;20585;-67
2023/10/01 00:44:13;;;;;;;10.48;3.65;;;12.70;99.90;;;;;;4987742;28;20042;-67
2023/10/01 00:47:51;;;;;;;7.25;2.90;;;12.70;99.90;;;;;;4989717;28;20030;-67
2023/10/01 00:50:43;;;;;;;10.13;2.67;;;12.60;99.90;;;;;;4909847;29;20047;-67
2023/10/01 00:53:27;;;;;;;10.18;3.10;;;12.50;99.90;;;;;;4912344;28;20024;-67
2023/10/01 00:56:15;;;;;;;18.45;4.15;;;12.50;99.90;;;;;;4970134;28;20125;-67
2023/10/01 00:58:41;;;;;;;6.72;2.97;;;12.70;99.90;;;;;;4950522;28;20034;-67
2023/10/01 01:01:07;;;;;;;6.82;2.92;;;12.60;99.90;;;;;;4965156;28;20042;-67
2023/10/01 01:03:35;;;;;;;6.13;2.67;;;12.60;99.90;;;;;;4970185;28;20043;-67
2023/10/01 01:06:37;;;;;;;7.82;2.80;;;12.40;99.90;;;;;;4948626;28;20491;-67
2023/10/01 01:09:20;;;;;;;;;;;12.40;99.90;;;;;;4977471;28;20107;-67
2023/10/01 01:11:58;;;;;;;5.97;2.53;;;12.30;99.90;;;;;;4946718;28;19910;-67
2023/10/01 01:14:36;;;;;;;5.50;2.55;;;12.10;99.90;;;;;;4967380;28;20138;-67
2023/10/01 01:17:04;;;;;;;6.45;2.78;;;12.00;99.90;;;;;;4962842;28;20062;-67
2023/10/01 01:20:43;;;;;;;5.30;2.38;;;12.10;99.90;;;;;;4968339;28;20027;-67
2023/10/01 01:23:31;;;;;;;5.00;2.05;;;12.00;99.90;;;;;;4941388;28;20039;-67
2023/10/01 01:26:10;;;;;;;5.63;2.30;;;11.90;99.90;;;;;;4933429;29;20042;-67
2023/10/01 01:28:55;;;;;;;5.88;2.53;;;11.90;99.90;;;;;;4987588;28;20038;-67
2023/10/01 01:32:02;;;;;;;10.50;2.83;;;11.90;99.90;;;;;;4990294;28;20035;-67
2023/10/01 01:34:28;;;;;;;11.80;2.65;;;11.90;99.90;;;;;;4996549;28;20046;-68
2023/10/01 01:37:02;;;;;;;12.38;4.63;;;12.00;99.90;;;;;;4987824;28;20092;-67
2023/10/01 01:46:08;;;;;;;8.95;3.00;;;12.20;99.90;;;;;;4982669;28;20050;-67
2023/10/01 01:48:37;;;;;;;3.63;2.38;;;12.00;99.90;;;;;;4984834;28;20034;-67
2023/10/01 01:51:06;;;;;;;9.13;2.65;;;11.80;99.90;;;;;;4972889;28;20506;-67
2023/10/01 01:56:22;;;;;;;8.47;2.60;;;11.70;99.90;;;;;;4966391;28;20534;-67
2023/10/01 02:02:59;;;;;;;6.43;2.55;;;11.80;99.90;;;;;;5051176;28;20048;-67
2023/10/01 02:06:08;;;;;;;;;;;11.70;99.90;;;;;;5064329;28;20024;-67
2023/10/01 02:11:48;;;;;;;11.43;2.90;;;11.70;99.90;;;;;;5014475;28;20033;-67
2023/10/01 02:14:35;;;;;;;10.30;3.13;;;11.50;99.90;;;;;;5035198;28;20028;-67
2023/10/01 02:19:55;;;;;;;6.72;2.85;;;11.50;99.90;;;;;;5046937;28;20025;-67
2023/10/01 02:22:27;;;;;;;8.48;3.25;;;11.60;99.90;;;;;;5049481;28;20025;-67
2023/10/01 02:28:58;;;;;;;8.60;2.78;;;11.60;99.90;;;;;;5007711;28;20052;-67
2023/10/01 02:31:56;;;;;;;9.63;2.60;;;11.80;99.90;;;;;;5035834;28;20029;-68
2023/10/01 02:34:50;;;;;;;7.65;3.33;;;11.90;99.90;;;;;;5060073;28;20033;-67
2023/10/01 02:41:08;;;;;;;8.23;2.78;;;11.80;99.90;;;;;;5054017;28;20155;-67
2023/10/01 02:44:03;;;;;;;6.90;2.67;;;11.40;99.90;;;;;;4998895;28;20034;-67
2023/10/01 02:47:20;;;;;;;11.18;3.00;;;11.40;99.90;;;;;;4975377;28;20038;-67
2023/10/01 02:49:59;;;;;;;3.85;2.40;;;11.40;99.90;;;;;;4982120;28;20031;-67
2023/10/01 02:52:46;;;;;;;14.57;3.25;;;11.40;99.90;;;;;;4990882;28;20050;-67
2023/10/01 02:58:02;;;;;;;8.05;3.45;;;11.30;99.90;;;;;;4990103;28;20030;-67
2023/10/01 03:01:08;;;;;;;10.02;3.60;;;11.40;99.90;;;;;;4976079;28;20132;-67
2023/10/01 03:05:07;;;;;;;8.48;3.90;;;11.30;99.90;;;;;;4979851;28;20053;-67
2023/10/01 03:10:52;;;;;;;12.80;3.35;;;11.50;99.90;;;;;;4957781;28;20038;-67
2023/10/01 03:14:04;;;;;;;10.00;2.63;;;11.60;99.90;;;;;;4971167;28;20078;-67
2023/10/01 03:16:55;;;;;;;9.23;2.60;;;11.50;99.90;;;;;;4955785;28;20043;-67
2023/10/01 03:19:25;;;;;;;6.15;2.97;;;11.50;99.90;;;;;;4976328;28;20588;-67
2023/10/01 03:24:36;;;;;;;7.10;3.40;;;11.60;99.90;;;;;;5028742;28;20034;-67
2023/10/01 03:27:25;;;;;;;11.15;3.88;;;11.70;99.90;;;;;;5026326;28;20061;-67
2023/10/01 03:30:18;;;;;;;9.75;4.05;;;11.50;99.90;;;;;;5023269;28;20029;-67
2023/10/01 03:33:25;;;;;;;7.32;3.42;;;11.50;99.90;;;;;;5014516;28;20076;-67
2023/10/01 03:35:57;;;;;;;10.57;4.50;;;11.60;99.90;;;;;;4971705;28;20026;-67
2023/10/01 03:38:57;;;;;;;7.03;3.47;;;11.50;99.90;;;;;;4962411;28;20315;-67
2023/10/01 03:42:37;;;;;;;13.20;4.10;;;11.40;99.90;;;;;;4964262;28;20050;-67
2023/10/01 03:48:42;;;;;;;11.57;4.20;;;11.40;99.90;;;;;;5025943;28;20071;-67
2023/10/01 03:54:13;;;;;;;7.10;3.17;;;11.50;99.90;;;;;;5015196;28;20080;-67
2023/10/01 03:56:45;;;;;;;9.75;4.15;;;11.50;99.90;;;;;;5051938;28;20078;-67
2023/10/01 03:59:20;;;;;;;8.32;3.60;;;11.60;99.90;;;;;;5034212;28;20381;-67
2023/10/01 04:02:27;;;;;;;6.07;2.80;;;11.60;99.90;;;;;;5051246;28;20021;-67
2023/10/01 04:04:57;;;;;;;9.45;4.00;;;11.50;99.90;;;;;;5044926;28;20029;-67
2023/10/01 04:07:48;;;;;;;7.00;3.03;;;11.40;99.90;;;;;;5047246;28;20048;-68
2023/10/01 04:10:38;;;;;;;9.75;4.15;;;11.40;99.90;;;;;;5033383;28;20029;-67
2023/10/01 04:19:11;;;;;;;38.03;15.55;;;11.70;99.90;;;;;;5004996;28;20034;-68
2023/10/01 04:21:43;;;;;;;14.23;7.22;;;11.80;99.90;;;;;;5009378;28;20050;-67
2023/10/01 04:24:09;;;;;;;12.73;4.82;;;11.80;99.90;;;;;;5037238;28;20041;-67
2023/10/01 04:26:35;;;;;;;8.10;3.28;;;11.80;99.90;;;;;;5051225;28;20469;-67
2023/10/01 04:29:44;;;;;;;8.38;3.03;;;11.70;99.90;;;;;;5046800;28;20503;-67
2023/10/01 04:32:28;;;;;;;8.55;3.33;;;11.80;99.90;;;;;;4989054;28;20099;-67
2023/10/01 04:35:27;;;;;;;9.52;3.10;;;11.90;99.90;;;;;;4989281;28;20053;-67
2023/10/01 04:38:12;;;;;;;9.52;3.45;;;11.90;99.90;;;;;;4988862;28;20065;-67
2023/10/01 04:44:13;;;;;;;10.40;3.45;;;11.90;99.90;;;;;;4977085;28;20038;-67
2023/10/01 04:46:41;;;;;;;7.57;2.75;;;12.00;99.90;;;;;;4988646;28;20487;-67
2023/10/01 04:49:46;;;;;;;9.40;3.83;;;11.90;99.90;;;;;;5022994;28;20037;-67
2023/10/01 04:52:38;;;;;;;10.38;4.03;;;11.80;99.90;;;;;;4988590;28;20076;-67
2023/10/01 04:55:08;;;;;;;6.90;2.95;;;11.80;99.90;;;;;;4980910;28;20443;-67
2023/10/01 04:57:38;;;;;;;9.00;3.72;;;11.70;99.90;;;;;;4988628;28;20109;-67
2023/10/01 05:00:45;;;;;;;10.15;3.92;;;11.70;99.90;;;;;;4989086;28;20080;-68
2023/10/01 05:03:14;;;;;;;8.25;3.42;;;11.60;99.90;;;;;;4984613;28;20034;-68
2023/10/01 05:05:48;;;;;;;14.73;4.50;;;11.50;99.90;;;;;;4988336;28;20560;-67
2023/10/01 05:08:17;;;;;;;9.90;3.53;;;11.60;99.90;;;;;;4988479;28;20038;-67
2023/10/01 05:11:21;;;;;;;13.23;2.88;;;11.40;99.90;;;;;;4989071;28;20030;-67
2023/10/01 05:14:12;;;;;;;10.35;4.60;;;11.50;99.90;;;;;;4957041;28;20057;-67
2023/10/01 05:17:17;;;;;;;11.35;4.65;;;11.50;99.90;;;;;;4987948;28;20057;-67
2023/10/01 05:19:43;;;;;;;7.28;3.47;;;11.60;99.90;;;;;;4980966;28;20487;-67
2023/10/01 05:22:23;;;;;;;10.00;4.20;;;11.50;99.90;;;;;;4988252;28;20042;-67
2023/10/01 05:25:05;;;;;;;9.07;4.10;;;11.40;99.90;;;;;;4981559;28;20121;-67
2023/10/01 05:27:54;;;;;;;;;;;11.20;99.90;;;;;;4994781;28;20050;-67
2023/10/01 05:34:05;;;;;;;8.95;3.28;;;11.30;99.90;;;;;;4964805;28;20027;-67
2023/10/01 05:36:30;;;;;;;8.63;3.67;;;11.10;99.90;;;;;;4978890;28;20037;-67
2023/10/01 05:38:56;;;;;;;6.10;2.90;;;11.10;99.90;;;;;;4974172;28;20113;-67
2023/10/01 05:44:34;;;;;;;9.02;3.42;;;11.20;99.90;;;;;;5013039;28;20048;-67
2023/10/01 05:47:03;;;;;;;8.98;4.97;;;11.30;99.90;;;;;;5025210;28;20053;-68
2023/10/01 05:49:33;;;;;;;9.00;3.45;;;11.20;99.90;;;;;;5035999;28;20124;-68
2023/10/01 05:52:07;;;;;;;7.03;2.90;;;11.10;99.90;;;;;;5043209;28;20028;-67
2023/10/01 05:58:12;;;;;;;7.15;2.97;;;11.30;99.90;;;;;;5002614;28;20069;-67
2023/10/01 06:00:57;;;;;;;9.70;3.45;;;11.40;99.90;;;;;;4988899;28;20039;-67
2023/10/01 06:04:34;;;;;;;7.28;2.88;;;11.40;99.90;;;;;;4993720;28;20544;-67
2023/10/01 06:07:09;;;;;;;5.25;2.70;;;11.30;99.90;;;;;;4971090;28;20050;-67
2023/10/01 06:09:57;;;;;;;8.40;3.05;;;11.30;99.90;;;;;;4969216;28;20050;-67
2023/10/01 06:12:50;;;;;;;11.63;3.65;;;11.30;99.90;;;;;;4964356;28;20042;-67
2023/10/01 06:16:16;;;;;;;8.05;3.17;;;11.20;99.90;;;;;;4975242;28;20073;-67
2023/10/01 06:19:43;;;;;;;8.77;4.35;;;11.10;99.90;;;;;;4979108;28;20137;-67
2023/10/01 06:22:27;;;;;;;6.35;3.65;;;11.30;99.90;;;;;;5003254;28;20120;-67
2023/10/01 06:24:56;;;;;;;10.35;4.07;;;11.40;99.90;;;;;;5001273;28;20029;-67
2023/10/01 06:27:25;;;;;;;9.20;3.33;;;11.40;99.90;;;;;;5016491;28;20057;-67
2023/10/01 06:29:56;;;;;;;9.18;3.63;;;11.50;99.90;;;;;;5050365;28;20048;-67
2023/10/01 06:32:37;;;;;;;6.78;3.28;;;11.60;99.90;;;;;;5045339;28;20373;-67
2023/10/01 06:35:03;;;;;;;;;;;11.60;99.90;;;;;;5050042;28;20111;-67
2023/10/01 06:38:00;;;;;;;9.55;3.60;;;11.70;99.90;;;;;;5045054;28;20000;-67
2023/10/01 06:43:48;;;;;;;10.25;3.08;;;11.90;99.90;;;;;;5048639;28;20533;-67
2023/10/01 06:47:28;;;;;;;7.68;3.88;;;11.90;99.90;;;;;;5053951;28;20116;-67
2023/10/01 06:50:24;;;;;;;10.10;3.33;;;11.90;99.90;;;;;;4994909;28;20574;-67
2023/10/01 06:52:57;;;;;;;7.22;3.10;;;12.10;99.90;;;;;;5041331;28;20033;-67
2023/10/01 06:56:17;;;;;;;11.98;3.70;;;12.10;99.90;;;;;;5052774;28;20108;-67
2023/10/01 07:01:59;;;;;;;8.07;3.30;;;12.20;99.90;;;;;;4991515;28;20033;-67
2023/10/01 07:05:04;;;;;;;13.20;3.35;;;12.20;99.90;;;;;;4996648;28;20126;-67
2023/10/01 07:07:52;;;;;;;8.65;3.30;;;12.30;99.90;;;;;;4951536;28;20055;-67
2023/10/01 07:10:23;;;;;;;8.35;3.80;;;12.40;99.90;;;;;;4933866;29;20040;-67
2023/10/01 07:13:07;;;;;;;11.48;3.88;;;12.40;99.90;;;;;;4945241;28;20039;-67
2023/10/01 07:15:59;;;;;;;8.55;3.38;;;12.50;99.90;;;;;;4952388;28;20050;-67
2023/10/01 07:18:25;;;;;;;13.80;3.53;;;12.70;99.90;;;;;;4942249;28;20049;-67
2023/10/01 07:21:00;;;;;;;10.60;3.00;;;12.80;99.90;;;;;;4952547;28;20031;-67
2023/10/01 07:23:29;;;;;;;10.82;4.45;;;12.90;99.90;;;;;;4955589;28;20051;-67
2023/10/01 07:26:33;;;;;;;7.50;3.17;;;13.10;99.90;;;;;;4995834;28;20056;-67
2023/10/01 07:29:06;;;;;;;8.75;4.10;;;13.30;99.90;;;;;;4997092;28;20076;-67
2023/10/01 07:31:38;;;;;;;6.65;2.60;;;13.40;99.90;;;;;;4976185;28;20467;-67
2023/10/01 07:34:58;;;;;;;16.83;3.30;;;13.60;99.90;;;;;;4990400;28;20045;-67
2023/10/01 07:37:37;;;;;;;9.95;3.17;;;13.70;99.90;;;;;;5001976;28;20133;-67
2023/10/01 07:43:18;;;;;;;11.57;3.92;;;13.90;99.90;;;;;;4997695;28;20054;-68
2023/10/01 07:46:07;;;;;;;9.18;3.67;;;14.00;99.90;;;;;;4990613;28;20038;-67
2023/10/01 07:48:35;;;;;;;13.20;3.60;;;14.10;99.90;;;;;;4990299;28;20046;-68
2023/10/01 07:54:02;;;;;;;12.02;3.10;;;14.30;99.90;;;;;;4986231;28;20093;-67
2023/10/01 07:56:34;;;;;;;7.20;3.50;;;14.40;99.90;;;;;;5006638;28;20197;-67
2023/10/01 08:05:08;;;;;;;9.77;4.97;;;14.70;99.90;;;;;;4991412;28;20045;-67
2023/10/01 08:08:58;;;;;;;9.93;4.15;;;14.80;99.90;;;;;;4997311;28;20042;-67
2023/10/01 08:12:08;;;;;;;7.75;3.17;;;15.00;99.90;;;;;;4863697;29;20045;-68
2023/10/01 08:15:15;;;;;;;10.40;3.70;;;15.10;99.90;;;;;;4916621;29;20126;-68
2023/10/01 08:17:36;;;;;;;13.98;4.20;;;15.30;99.90;;;;;;4930957;29;20444;-67
2023/10/01 08:20:17;;;;;;;18.50;4.75;;;15.40;99.90;;;;;;4932527;29;20038;-67
2023/10/01 08:22:43;;;;;;;12.20;3.92;;;15.50;99.90;;;;;;4931489;29;20127;-67
2023/10/01 08:25:34;;;;;;;9.93;3.55;;;15.60;99.90;;;;;;4932095;29;20476;-67
2023/10/01 08:30:43;;;;;;;10.47;3.93;;;15.70;99.90;;;;;;4931941;29;20039;-67
2023/10/01 08:36:24;;;;;;;14.38;3.85;;;15.80;99.90;;;;;;4932153;29;20047;-67
2023/10/01 08:39:47;;;;;;;9.70;3.05;;;15.90;99.90;;;;;;4893578;29;20616;-67
2023/10/01 08:45:19;;;;;;;14.65;4.03;;;16.20;99.90;;;;;;4924892;28;20035;-68
2023/10/01 08:48:17;;;;;;;10.50;4.20;;;16.30;99.90;;;;;;4949317;28;20511;-66
2023/10/01 08:50:51;;;;;;;12.65;3.88;;;16.50;99.90;;;;;;4992621;28;20037;-66
2023/10/01 08:53:20;;;;;;;12.40;3.35;;;16.40;99.90;;;;;;4992161;28;20093;-66
2023/10/01 08:59:32;;;;;;;10.95;3.78;;;16.80;99.90;;;;;;4988566;28;20030;-67
2023/10/01 09:06:08;;;;;;;11.43;4.55;;;16.90;99.90;;;;;;4988403;28;20038;-66
2023/10/01 09:09:26;;;;;;;13.23;3.70;;;17.20;99.90;;;;;;4947391;28;20048;-66
2023/10/01 09:11:58;;;;;;;9.00;4.07;;;17.20;99.90;;;;;;4931136;29;20034;-67
2023/10/01 09:15:43;;;;;;;8.27;3.22;;;17.40;99.90;;;;;;4947348;28;20044;-67
2023/10/01 09:18:10;;;;;;;8.27;3.20;;;17.50;99.90;;;;;;4983895;28;20495;-67
2023/10/01 09:21:20;;;;;;;7.63;3.08;;;17.80;99.90;;;;;;4997282;28;20050;-68
2023/10/01 09:26:56;;;;;;;7.63;3.03;;;18.00;99.90;;;;;;4931240;29;20047;-67
2023/10/01 09:29:26;;;;;;;8.50;3.15;;;18.10;99.90;;;;;;4928345;29;20457;-68
2023/10/01 09:31:59;;;;;;;9.63;3.53;;;18.10;99.90;;;;;;4930802;29;20552;-67
2023/10/01 09:34:58;;;;;;;8.63;3.22;;;18.30;99.90;;;;;;4930230;29;20046;-68
2023/10/01 09:43:04;;;;;;;12.88;3.72;;;18.80;99.90;;;;;;4930773;29;20464;-68
2023/10/01 09:46:16;;;;;;;13.57;3.47;;;18.80;99.90;;;;;;4938088;28;20460;-66
2023/10/01 09:49:00;;;;;;;7.95;2.55;;;19.10;99.90;;;;;;4949504;28;20042;-66
2023/10/01 09:51:59;;;;;;;12.43;3.28;;;19.60;99.90;;;;;;4935121;28;20034;-67
2023/10/01 09:54:48;;;;;;;7.78;3.60;;;19.70;99.90;;;;;;4946918;28;20070;-67
2023/10/01 09:57:37;;;;;;;9.88;3.58;;;19.60;99.90;;;;;;4934296;29;20448;-67
2023/10/01 10:03:11;;;;;;;8.90;2.92;;;19.80;99.90;;;;;;5037419;28;20067;-67
2023/10/01 10:05:53;;;;;;;9.90;3.53;;;19.90;99.90;;;;;;5033733;28;20464;-67
2023/10/01 10:09:03;;;;;;;10.88;3.13;;;20.10;99.90;;;;;;5008272;28;20030;-67
2023/10/01 10:11:54;;;;;;;10.05;3.33;;;20.00;99.90;;;;;;5048041;28;20086;-67
2023/10/01 10:14:35;;;;;;;7.60;2.70;;;20.40;99.90;;;;;;5046883;28;20037;-67
2023/10/01 10:17:18;;;;;;;11.55;3.13;;;20.50;99.90;;;;;;5051022;28;20783;-68
2023/10/01 10:24:28;;;;;;;9.68;2.95;;;20.60;99.90;;;;;;5041712;28;20481;-68
2023/10/01 10:28:21;;;;;;;;;;;;;;;;;;;;;
2023/10/01 10:30:41;;;;;;;5.57;2.35;;;21.20;99.90;;;;;;4986453;28;20069;-68
2023/10/01 10:34:47;;;;;;;11.35;4.05;;;21.00;99.90;;;;;;4991480;28;20441;-68
2023/10/01 10:37:58;;;;;;;7.18;3.42;;;21.00;99.90;;;;;;4952782;28;20066;-68
2023/10/01 10:40:26;;;;;;;8.95;3.15;;;21.40;99.90;;;;;;4953048;28;20050;-68
2023/10/01 10:43:33;;;;;;;16.50;3.15;;;21.50;99.90;;;;;;4936493;29;20427;-67
2023/10/01 10:47:06;;;;;;;7.68;2.28;;;21.90;99.90;;;;;;4946855;28;20054;-68
2023/10/01 10:49:56;;;;;;;7.07;2.63;;;21.70;99.90;;;;;;4893807;29;20136;-67
2023/10/01 10:52:32;;;;;;;8.68;2.60;;;21.90;99.90;;;;;;4875658;29;20037;-68
2023/10/01 10:55:38;;;;;;;10.48;2.47;;;22.40;99.90;;;;;;4946205;28;20083;-68
2023/10/01 10:59:03;;;;;;;10.75;3.17;;;22.60;99.90;;;;;;4946867;28;20024;-68
2023/10/01 11:01:44;;;;;;;8.07;2.60;;;22.90;99.90;;;;;;4963674;28;20046;-68
2023/10/01 11:04:42;;;;;;;;;;;22.70;99.90;;;;;;4975207;28;20123;-68
2023/10/01 11:07:58;;;;;;;9.75;2.85;;;22.90;99.50;;;;;;5024589;28;20310;-68
2023/10/01 11:10:46;;;;;;;7.65;2.42;;;22.50;99.90;;;;;;4993931;28;20590;-68
2023/10/01 11:13:13;;;;;;;8.25;2.50;;;22.70;99.90;;;;;;4974863;28;20034;-68
2023/10/01 11:15:47;;;;;;;11.20;3.03;;;22.80;99.90;;;;;;4992781;28;20054;-67
2023/10/01 11:18:13;;;;;;;7.75;2.60;;;22.70;99.90;;;;;;4991055;28;20045;-67
2023/10/01 11:20:45;;;;;;;5.95;2.00;;;23.20;99.90;;;;;;4990890;28;20039;-67
2023/10/01 11:23:22;;;;;;;10.82;2.92;;;23.90;98.10;;;;;;4954818;28;20038;-68
2023/10/01 11:38:47;;;;;;;6.70;2.08;;;26.20;90.00;;;;;;5010693;28;20470;-67
2023/10/01 11:41:45;;;;;;;7.38;2.20;;;26.10;89.60;;;;;;5010523;28;20033;-67
2023/10/01 11:44:43;;;;;;;4.63;2.05;;;25.80;88.20;;;;;;5009608;28;20053;-68
2023/10/01 11:47:38;;;;;;;13.70;1.90;;;25.50;88.70;;;;;;5004651;28;20034;-68
2023/10/01 11:50:55;;;;;;;12.15;2.30;;;25.90;84.80;;;;;;5022994;28;20033;-68
2023/10/01 11:53:28;;;;;;;6.90;2.10;;;27.20;78.10;;;;;;4954961;28;20479;-68
2023/10/01 12:00:32;;;;;;;5.45;2.03;;;29.30;74.40;;;;;;4932726;28;20086;-68
2023/10/01 12:03:13;;;;;;;4.60;2.05;;;30.80;68.20;;;;;;4934634;29;20063;-68
2023/10/01 12:05:41;;;;;;;7.38;2.38;;;30.20;66.80;;;;;;4939976;29;20086;-68
2023/10/01 12:09:39;;;;;;;5.95;2.08;;;30.50;65.80;;;;;;4922029;29;20043;-68
2023/10/01 12:12:06;;;;;;;7.60;2.40;;;28.80;65.30;;;;;;4846704;29;20097;-68
2023/10/01 12:14:53;;;;;;;5.70;2.13;;;28.90;64.10;;;;;;4839611;29;20561;-68
2023/10/01 12:17:44;;;;;;;5.15;1.90;;;28.10;66.10;;;;;;4838544;29;20057;-68
2023/10/01 12:31:49;;;;;;;7.78;2.10;;;29.00;64.60;;;;;;4875653;29;20043;-68
2023/10/01 12:34:25;;;;;;;7.32;2.10;;;29.50;63.30;;;;;;4875145;29;20216;-68
2023/10/01 12:36:54;;;;;;;6.93;2.42;;;28.60;62.40;;;;;;4916274;29;20036;-68
2023/10/01 12:39:27;;;;;;;6.78;2.22;;;28.60;63.70;;;;;;4916425;29;20083;-68
2023/10/01 12:42:50;;;;;;;7.57;2.60;;;29.40;64.40;;;;;;4957914;28;20070;-68
2023/10/01 12:45:38;;;;;;;7.70;2.70;;;29.00;61.40;;;;;;4965931;28;20053;-68
2023/10/01 12:48:08;;;;;;;10.32;3.47;;;29.80;61.20;;;;;;4992931;28;20058;-68
2023/10/01 12:50:59;;;;;;;11.60;3.45;;;29.90;60.80;;;;;;5051453;28;20432;-68
2023/10/01 12:54:09;;;;;;;5.95;2.38;;;30.00;61.50;;;;;;5045555;28;20068;-68
2023/10/01 13:00:21;;;;;;;9.30;2.60;;;28.70;62.80;;;;;;5049656;28;20048;-68
2023/10/01 13:02:47;;;;;;;7.93;2.45;;;28.70;62.50;;;;;;5039237;28;20128;-68
2023/10/01 13:05:43;;;;;;;5.25;2.20;;;28.00;63.90;;;;;;5050820;28;20044;-67
2023/10/01 13:08:08;;;;;;;8.98;2.40;;;28.50;62.90;;;;;;5039505;28;20069;-68
2023/10/01 13:14:23;;;;;;;8.10;2.53;;;29.20;62.80;;;;;;4985541;28;20117;-68
2023/10/01 13:17:19;;;;;;;10.20;3.13;;;28.00;64.10;;;;;;4988708;28;20113;-69
2023/10/01 13:20:18;;;;;;;11.20;2.95;;;27.40;66.30;;;;;;4997036;28;20637;-68
2023/10/01 13:22:42;;;;;;;8.18;2.28;;;28.70;65.00;;;;;;4985989;28;20437;-69
2023/10/01 13:25:11;;;;;;;5.47;2.00;;;29.20;63.00;;;;;;4988745;28;20038;-69
2023/10/01 13:27:39;;;;;;;4.93;2.20;;;28.20;65.80;;;;;;4996838;28;20044;-69
2023/10/01 13:36:12;;;;;;;12.25;2.60;;;28.30;66.80;;;;;;4991793;28;20084;-69
2023/10/01 14:14:43;;;;;;;7.45;2.40;;;29.10;66.10;;;;;;5032438;28;20051;-68
2023/10/01 14:17:52;;;;;;;6.93;2.40;;;28.70;64.70;;;;;;5032219;28;20033;-68
2023/10/01 14:21:12;;;;;;;9.10;2.40;;;29.40;64.80;;;;;;5049355;28;20412;-68
2023/10/01 14:24:21;;;;;;;16.15;3.13;;;30.60;62.70;;;;;;5047093;28;20405;-69
2023/10/01 14:26:50;;;;;;;9.57;2.80;;;30.30;62.60;;;;;;5053147;28;20493;-68
2023/10/01 14:29:33;;;;;;;9.93;2.85;;;29.50;62.10;;;;;;5049735;28;20098;-68
2023/10/01 14:32:10;;;;;;;8.85;3.45;;;29.50;64.50;;;;;;5044773;28;20017;-68
2023/10/01 14:35:17;;;;;;;9.18;3.17;;;28.70;62.50;;;;;;5059935;28;20020;-68
2023/10/01 14:38:04;;;;;;;13.20;3.00;;;28.80;63.50;;;;;;5048052;28;20374;-68
2023/10/01 14:40:31;;;;;;;7.45;2.60;;;29.40;62.60;;;;;;5053478;28;20028;-68
2023/10/01 14:43:48;;;;;;;6.25;2.60;;;28.50;64.40;;;;;;5034863;28;20025;-68
2023/10/01 14:47:04;;;;;;;11.02;2.80;;;27.40;66.30;;;;;;4991335;28;20536;-68
2023/10/01 14:49:41;;;;;;;9.43;2.53;;;29.60;62.30;;;;;;4931962;29;20035;-68
2023/10/01 14:52:22;;;;;;;7.25;2.67;;;28.30;61.80;;;;;;4938842;29;20032;-68
2023/10/01 14:54:56;;;;;;;8.50;3.58;;;28.40;62.20;;;;;;4932979;29;20495;-68
2023/10/01 14:57:32;;;;;;;9.82;3.22;;;27.80;61.80;;;;;;4933021;29;20043;-68
2023/10/01 15:00:02;;;;;;;8.75;2.75;;;28.20;64.30;;;;;;4927148;29;20042;-68
2023/10/01 15:05:26;;;;;;;9.82;3.40;;;28.50;62.30;;;;;;4933600;29;20539;-68
2023/10/01 15:08:04;;;;;;;8.35;3.40;;;27.70;63.40;;;;;;4922170;29;20549;-68
2023/10/01 15:10:35;;;;;;;11.63;4.03;;;28.30;64.70;;;;;;4941242;29;20044;-68
2023/10/01 15:13:01;;;;;;;7.85;2.75;;;29.00;62.10;;;;;;4933053;29;20084;-68
2023/10/01 15:15:41;;;;;;;12.15;3.70;;;28.40;61.90;;;;;;4941049;28;20035;-68
2023/10/01 15:22:08;;;;;;;4.38;2.30;;;28.30;61.90;;;;;;4992015;28;20053;-68
2023/10/01 15:25:12;;;;;;;9.88;2.78;;;29.10;62.30;;;;;;5050705;28;20032;-68
2023/10/01 15:28:09;;;;;;;9.63;2.97;;;29.70;62.20;;;;;;5023439;28;20164;-68
2023/10/01 15:30:54;;;;;;;8.35;2.28;;;29.90;59.90;;;;;;5061051;28;20028;-68
2023/10/01 15:33:23;;;;;;;7.40;2.75;;;30.20;60.00;;;;;;5047060;28;20056;-69
2023/10/01 15:35:52;;;;;;;7.65;3.40;;;29.30;59.10;;;;;;5052904;28;20025;-69
2023/10/01 15:38:50;;;;;;;7.78;2.53;;;28.80;60.70;;;;;;5052248;28;20044;-69
2023/10/01 15:41:19;;;;;;;9.98;2.92;;;28.70;62.10;;;;;;4991389;28;20046;-69
2023/10/01 15:43:50;;;;;;;7.10;2.67;;;29.20;61.40;;;;;;4990617;28;20039;-69
2023/10/01 15:47:09;;;;;;;10.90;3.13;;;29.50;61.30;;;;;;4990551;28;20422;-69
2023/10/01 15:49:55;;;;;;;8.77;2.45;;;28.20;62.00;;;;;;4990295;28;20514;-69
2023/10/01 15:52:58;;;;;;;8.52;2.90;;;29.50;60.00;;;;;;4993942;28;20057;-69
2023/10/01 15:58:49;;;;;;;7.65;2.78;;;30.00;57.80;;;;;;4910513;29;20051;-69
2023/10/01 16:01:24;;;;;;;6.57;2.80;;;29.30;58.60;;;;;;4932784;29;20047;-69
2023/10/01 16:03:58;;;;;;;10.48;2.70;;;28.90;59.60;;;;;;4921730;29;20100;-69
2023/10/01 16:07:17;;;;;;;8.13;3.05;;;28.50;60.20;;;;;;4916896;29;20529;-69
2023/10/01 16:10:11;;;;;;;10.10;3.38;;;29.20;58.90;;;;;;4894092;29;20107;-69
2023/10/01 16:12:44;;;;;;;8.25;3.00;;;29.40;58.20;;;;;;4893675;29;20135;-69
2023/10/01 16:16:07;;;;;;;8.48;2.47;;;29.10;57.90;;;;;;4894441;29;20048;-69
2023/10/01 16:19:05;;;;;;;11.43;3.25;;;28.80;58.40;;;;;;4863743;29;20403;-69
2023/10/01 16:21:42;;;;;;;8.05;2.33;;;28.10;59.40;;;;;;4875701;29;20041;-69
2023/10/01 16:24:08;;;;;;;7.05;2.47;;;28.60;60.00;;;;;;4875063;29;20067;-69
2023/10/01 16:26:46;;;;;;;7.05;2.22;;;29.00;59.40;;;;;;4875383;29;20041;-69
2023/10/01 16:33:04;;;;;;;9.32;3.20;;;28.20;61.20;;;;;;4893939;29;20489;-69
2023/10/01 16:35:31;;;;;;;11.90;3.20;;;28.80;60.50;;;;;;4912389;29;20107;-69
2023/10/01 16:38:38;;;;;;;12.32;5.93;;;29.00;60.00;;;;;;4908151;29;20027;-69
2023/10/01 16:41:31;;;;;;;8.80;3.10;;;28.30;60.10;;;;;;4918276;28;20117;-69
2023/10/01 16:44:16;;;;;;;7.93;2.53;;;27.70;62.20;;;;;;4932108;28;20519;-69
2023/10/01 16:46:57;;;;;;;7.78;2.63;;;27.60;61.50;;;;;;4940453;29;20047;-69
2023/10/01 16:53:43;;;;;;;9.43;3.40;;;26.50;63.30;;;;;;4964510;28;20046;-69
2023/10/01 16:56:16;;;;;;;7.32;2.60;;;26.10;64.70;;;;;;4934621;29;20130;-69
2023/10/01 16:59:21;;;;;;;10.82;4.65;;;25.50;65.90;;;;;;4945522;28;20071;-69
2023/10/01 17:01:57;;;;;;;7.10;2.55;;;25.10;67.00;;;;;;4950087;28;20126;-68
2023/10/01 17:04:37;;;;;;;8.48;2.45;;;24.90;68.20;;;;;;4946776;28;20404;-68
2023/10/01 17:07:44;;;;;;;11.63;2.75;;;24.80;69.10;;;;;;4941611;28;20921;-69
2023/10/01 17:10:12;;;;;;;7.75;2.13;;;24.60;69.00;;;;;;4985008;28;20048;-68
2023/10/01 17:13:18;;;;;;;9.48;3.25;;;24.30;70.30;;;;;;4993827;28;20149;-68
2023/10/01 17:20:13;;;;;;;8.82;2.60;;;23.60;74.30;;;;;;5005646;28;20590;-68
2023/10/01 17:25:30;;;;;;;11.98;3.50;;;23.10;79.60;;;;;;4994362;28;20101;-68
2023/10/01 17:29:19;;;;;;;11.90;3.33;;;23.00;82.60;;;;;;5007750;28;20486;-68
2023/10/01 17:31:48;;;;;;;12.43;3.13;;;22.50;90.00;;;;;;4924423;28;20031;-68
2023/10/01 17:37:31;;;;;;;8.30;3.30;;;22.20;93.60;;;;;;5033543;28;20086;-68
2023/10/01 17:40:24;;;;;;;11.98;3.42;;;21.90;95.50;;;;;;5043294;28;20064;-68
2023/10/01 17:43:35;;;;;;;7.97;3.17;;;21.70;97.80;;;;;;5031801;28;20043;-68
2023/10/01 17:46:13;;;;;;;12.52;4.00;;;21.50;99.00;;;;;;5037395;28;20040;-68
2023/10/01 17:49:45;;;;;;;11.80;3.83;;;21.30;99.90;;;;;;5046888;28;20071;-68
2023/10/01 17:52:48;;;;;;;10.27;3.72;;;21.10;99.90;;;;;;4995376;28;20490;-68
2023/10/01 17:55:38;;;;;;;8.30;2.88;;;21.00;99.90;;;;;;4988569;28;20070;-68
2023/10/01 17:58:29;;;;;;;8.75;2.75;;;20.90;99.90;;;;;;4988274;28;20026;-68
2023/10/01 18:01:13;;;;;;;11.13;4.03;;;20.70;99.90;;;;;;4989051;28;20436;-68
2023/10/01 18:03:49;;;;;;;13.45;3.78;;;20.70;99.90;;;;;;4987687;28;20054;-68
2023/10/01 18:06:53;;;;;;;10.80;3.60;;;20.70;99.90;;;;;;4988883;28;20137;-68